createdAt,value
2023-03-29T00:01:11.648Z,100011.09
2023-03-29T00:04:02.410Z,100016.56
2023-03-29T00:06:33.299Z,100014.69
2023-03-29T00:09:05.473Z,100013.84
2023-03-29T00:11:34.236Z,100014.06
2023-03-29T00:14:02.733Z,100016.81
2023-03-29T00:16:31.404Z,100012.41
2023-03-29T00:19:00.371Z,100008.00
2023-03-29T00:21:28.782Z,100007.16
2023-03-29T00:23:59.986Z,100006.31
2023-03-29T00:26:28.446Z,100001.94
2023-03-29T00:28:56.890Z,100004.66
2023-03-29T00:31:25.292Z,100000.25
2023-03-29T00:33:53.840Z,100003.22
2023-03-29T00:36:23.434Z,100011.84
2023-03-29T00:38:52.068Z,100007.47
2023-03-29T00:41:21.909Z,100012.31
2023-03-29T00:43:57.052Z,100010.63
2023-03-29T00:46:26.490Z,100017.78
2023-03-29T00:48:58.770Z,100023.00
2023-03-29T00:51:32.085Z,100017.78
2023-03-29T00:54:03.151Z,100021.56
2023-03-29T00:56:37.272Z,100028.91
2023-03-29T00:59:11.157Z,100024.28
2023-03-29T01:01:45.951Z,100022.41
2023-03-29T01:04:21.560Z,100009.34
2023-03-29T01:06:56.880Z,100011.03
2023-03-29T01:09:29.909Z,100006.38
2023-03-29T01:12:08.547Z,100011.66
2023-03-29T01:14:42.970Z,99998.00
2023-03-29T01:17:12.960Z,100004.66
2023-03-29T01:19:47.108Z,99991.84
2023-03-29T01:22:28.328Z,99983.19
2023-03-29T01:25:12.558Z,99984.66
2023-03-29T01:27:54.534Z,99980.63
2023-03-29T01:30:29.881Z,99991.94
2023-03-29T01:33:03.911Z,99994.22
2023-03-29T01:35:39.210Z,99994.00
2023-03-29T01:38:13.446Z,99991.03
2023-03-29T01:40:42.123Z,99985.56
2023-03-29T01:43:24.503Z,99979.50
2023-03-29T01:46:04.191Z,99973.88
2023-03-29T01:48:37.708Z,99977.53
2023-03-29T01:51:11.647Z,99970.47
2023-03-29T01:53:46.960Z,99972.41
2023-03-29T01:56:19.818Z,99975.81
2023-03-29T01:58:54.316Z,99977.50
2023-03-29T02:01:27.129Z,99978.19
2023-03-29T02:04:00.471Z,99969.84
2023-03-29T02:06:31.459Z,99962.53
2023-03-29T02:09:00.927Z,99962.16
2023-03-29T02:11:29.671Z,99961.16
2023-03-29T02:13:59.503Z,99959.31
2023-03-29T02:16:28.848Z,99963.56
2023-03-29T02:18:58.783Z,99969.47
2023-03-29T02:21:31.708Z,99969.88
2023-03-29T02:24:04.006Z,99972.25
2023-03-29T02:26:32.469Z,99977.69
2023-03-29T02:29:02.440Z,99977.09
2023-03-29T02:31:37.202Z,99976.44
2023-03-29T02:34:17.071Z,99979.41
2023-03-29T02:36:51.638Z,99984.25
2023-03-29T02:39:21.349Z,99978.78
2023-03-29T02:41:52.221Z,99975.66
2023-03-29T02:44:25.928Z,99980.06
2023-03-29T02:46:59.156Z,99983.03
2023-03-29T02:49:28.115Z,99983.03
2023-03-29T02:52:04.536Z,99979.44
2023-03-29T02:54:33.785Z,99979.69
2023-03-29T02:57:06.895Z,99981.78
2023-03-29T02:59:38.560Z,99976.78
2023-03-29T03:02:07.468Z,99969.88
2023-03-29T03:04:36.047Z,99973.03
2023-03-29T03:07:06.068Z,99977.63
2023-03-29T03:09:35.532Z,99974.28
2023-03-29T03:12:04.133Z,99979.75
2023-03-29T03:14:32.744Z,99971.56
2023-03-29T03:17:04.576Z,99965.69
2023-03-29T03:19:33.884Z,99968.78
2023-03-29T03:22:02.379Z,99958.31
2023-03-29T03:24:32.581Z,99959.28
2023-03-29T03:27:01.013Z,99965.75
2023-03-29T03:29:29.903Z,99950.63
2023-03-29T03:31:58.429Z,99948.06
2023-03-29T03:34:28.462Z,99954.97
2023-03-29T03:36:56.860Z,99952.84
2023-03-29T03:39:25.269Z,99942.78
2023-03-29T03:41:53.703Z,99947.19
2023-03-29T03:44:22.384Z,99944.47
2023-03-29T03:46:51.047Z,99944.47
2023-03-29T03:49:19.453Z,99938.38
2023-03-29T03:51:50.380Z,99939.44
2023-03-29T03:54:20.712Z,99942.38
2023-03-29T03:56:49.316Z,99938.00
2023-03-29T03:59:18.050Z,99945.34
2023-03-29T04:01:46.848Z,99939.88
2023-03-29T04:04:16.486Z,99947.03
2023-03-29T04:06:45.176Z,99942.38
2023-03-29T04:09:14.960Z,99935.03
2023-03-29T04:11:43.374Z,99927.69
2023-03-29T04:14:11.800Z,99922.25
2023-03-29T04:16:40.190Z,99924.75
2023-03-29T04:19:08.588Z,99923.25
2023-03-29T04:21:37.009Z,99919.25
2023-03-29T04:24:06.106Z,99916.53
2023-03-29T04:26:36.058Z,99915.88
2023-03-29T04:29:04.866Z,99901.44
2023-03-29T04:31:33.963Z,99903.56
2023-03-29T04:34:02.399Z,99914.47
2023-03-29T04:36:31.009Z,99904.38
2023-03-29T04:39:01.478Z,99911.50
2023-03-29T04:41:30.018Z,99905.38
2023-03-29T04:43:59.868Z,99907.66
2023-03-29T04:46:28.346Z,99903.19
2023-03-29T04:48:57.445Z,99902.50
2023-03-29T04:51:25.908Z,99909.81
2023-03-29T04:53:54.423Z,99918.13
2023-03-29T04:56:23.144Z,99916.84
2023-03-29T04:58:51.853Z,99920.63
2023-03-29T05:01:21.698Z,99921.59
2023-03-29T05:03:50.329Z,99910.63
2023-03-29T05:06:18.747Z,99907.22
2023-03-29T05:08:47.193Z,99914.72
2023-03-29T05:11:15.627Z,99915.09
2023-03-29T05:13:44.060Z,99922.84
2023-03-29T05:16:12.532Z,99917.16
2023-03-29T05:18:42.745Z,99914.41
2023-03-29T05:21:11.179Z,99925.34
2023-03-29T05:23:39.673Z,99918.44
2023-03-29T05:26:09.977Z,99924.13
2023-03-29T05:28:39.534Z,99915.53
2023-03-29T05:31:08.717Z,99906.13
2023-03-29T05:33:37.218Z,99896.50
2023-03-29T05:36:10.935Z,99901.38
2023-03-29T05:38:39.412Z,99902.22
2023-03-29T05:41:08.716Z,99904.69
2023-03-29T05:43:37.132Z,99909.94
2023-03-29T05:46:07.496Z,99887.63
2023-03-29T05:48:36.119Z,99884.22
2023-03-29T05:51:06.327Z,99897.81
2023-03-29T05:53:35.292Z,99892.28
2023-03-29T05:56:04.082Z,99897.41
2023-03-29T05:58:32.566Z,99909.94
2023-03-29T06:01:05.570Z,99923.06
2023-03-29T06:03:34.121Z,99917.84
2023-03-29T06:06:04.647Z,99920.28
2023-03-29T06:08:35.594Z,99923.31
2023-03-29T06:11:08.892Z,99928.19
2023-03-29T06:13:39.000Z,99920.53
2023-03-29T06:16:08.838Z,99916.59
2023-03-29T06:18:40.295Z,99915.91
2023-03-29T06:21:09.538Z,99914.84
2023-03-29T06:23:39.606Z,99915.44
2023-03-29T06:26:08.678Z,99921.31
2023-03-29T06:28:37.378Z,99923.94
2023-03-29T06:31:06.547Z,99922.72
2023-03-29T06:33:37.330Z,99919.44
2023-03-29T06:36:06.407Z,99920.75
2023-03-29T06:38:35.371Z,99921.72
2023-03-29T06:41:08.471Z,99922.44
2023-03-29T06:43:37.250Z,99923.31
2023-03-29T06:46:08.833Z,99914.28
2023-03-29T06:48:37.303Z,99914.00
2023-03-29T06:51:07.589Z,99918.91
2023-03-29T06:53:36.774Z,99913.03
2023-03-29T06:56:09.444Z,99910.28
2023-03-29T06:58:38.200Z,99915.25
2023-03-29T07:01:07.695Z,99909.50
2023-03-29T07:03:36.408Z,99915.53
2023-03-29T07:06:10.115Z,99917.75
2023-03-29T07:08:43.526Z,99912.78
2023-03-29T07:11:15.147Z,99913.00
2023-03-29T07:13:45.043Z,99909.09
2023-03-29T07:16:14.877Z,99910.72
2023-03-29T07:18:44.876Z,99908.97
2023-03-29T07:21:14.492Z,99910.56
2023-03-29T07:23:43.616Z,99913.47
2023-03-29T07:26:13.917Z,99906.16
2023-03-29T07:28:56.998Z,99904.06
2023-03-29T07:31:25.596Z,99910.22
2023-03-29T07:33:54.351Z,99908.13
2023-03-29T07:36:22.934Z,99903.88
2023-03-29T07:38:51.726Z,99907.34
2023-03-29T07:41:22.783Z,99913.03
2023-03-29T07:43:51.998Z,99908.75
2023-03-29T07:46:20.582Z,99901.72
2023-03-29T07:48:49.066Z,99896.63
2023-03-29T07:51:17.919Z,99899.84
2023-03-29T07:53:46.456Z,99896.97
2023-03-29T07:56:15.689Z,99896.81
2023-03-29T07:58:46.595Z,99894.47
2023-03-29T08:01:18.779Z,99881.97
2023-03-29T08:03:48.162Z,99882.59
2023-03-29T08:06:17.305Z,99875.22
2023-03-29T08:08:45.759Z,99882.38
2023-03-29T08:11:14.319Z,99871.69
2023-03-29T08:13:44.354Z,99870.38
2023-03-29T08:16:12.855Z,99877.06
2023-03-29T08:18:41.362Z,99865.06
2023-03-29T08:21:10.240Z,99870.44
2023-03-29T08:23:38.740Z,99867.84
2023-03-29T08:26:08.717Z,99865.41
2023-03-29T08:28:37.232Z,99867.34
2023-03-29T08:31:09.841Z,99867.63
2023-03-29T08:33:38.668Z,99866.88
2023-03-29T08:36:08.515Z,99867.50
2023-03-29T08:38:37.328Z,99870.56
2023-03-29T08:41:19.820Z,99861.47
2023-03-29T08:44:02.149Z,99873.66
2023-03-29T08:46:40.199Z,99872.31
2023-03-29T08:49:10.628Z,99860.47
2023-03-29T08:51:44.017Z,99853.56
2023-03-29T08:54:18.009Z,99859.38
2023-03-29T08:56:47.959Z,99855.50
2023-03-29T08:59:23.108Z,99849.69
2023-03-29T09:01:57.047Z,99838.59
2023-03-29T09:04:30.545Z,99835.84
2023-03-29T09:06:59.499Z,99838.28
2023-03-29T09:09:34.939Z,99841.06
2023-03-29T09:12:18.161Z,99838.84
2023-03-29T09:15:06.737Z,99833.31
2023-03-29T09:17:49.793Z,99844.91
2023-03-29T09:20:31.476Z,99847.69
2023-03-29T09:23:23.449Z,99840.72
2023-03-29T09:26:00.848Z,99845.41
2023-03-29T09:28:37.552Z,99843.44
2023-03-29T09:31:13.766Z,99838.66
2023-03-29T09:33:47.889Z,99842.28
2023-03-29T09:36:21.758Z,99833.13
2023-03-29T09:38:54.490Z,99831.47
2023-03-29T09:41:29.589Z,99835.91
2023-03-29T09:44:01.610Z,99828.69
2023-03-29T09:46:37.201Z,99826.19
2023-03-29T09:49:16.069Z,99827.81
2023-03-29T09:51:48.532Z,99828.06
2023-03-29T09:54:17.035Z,99820.88
2023-03-29T09:56:45.582Z,99819.25
2023-03-29T09:59:14.660Z,99824.19
2023-03-29T10:01:46.639Z,99825.03
2023-03-29T10:04:17.822Z,99819.47
2023-03-29T10:06:50.433Z,99819.41
2023-03-29T10:09:22.652Z,99823.81
2023-03-29T10:11:56.749Z,99820.72
2023-03-29T10:14:35.683Z,99823.50
2023-03-29T10:17:08.762Z,99817.13
2023-03-29T10:19:38.697Z,99817.19
2023-03-29T10:22:09.632Z,99813.38
2023-03-29T10:24:38.125Z,99813.41
2023-03-29T10:27:11.797Z,99811.81
2023-03-29T10:29:42.713Z,99811.00
2023-03-29T10:32:19.305Z,99796.34
2023-03-29T10:34:50.161Z,99802.72
2023-03-29T10:37:21.277Z,99797.19
2023-03-29T10:39:50.308Z,99796.41
2023-03-29T10:42:24.147Z,99799.44
2023-03-29T10:44:57.915Z,99795.03
2023-03-29T10:47:27.161Z,99794.69
2023-03-29T10:49:59.345Z,99799.09
2023-03-29T10:52:27.849Z,99800.22
2023-03-29T10:54:59.328Z,99799.97
2023-03-29T10:57:38.568Z,99796.41
2023-03-29T11:00:19.801Z,99801.94
2023-03-29T11:03:30.488Z,99801.66
2023-03-29T11:06:11.154Z,99791.97
2023-03-29T11:08:58.440Z,99778.13
2023-03-29T11:12:15.080Z,99786.41
2023-03-29T11:14:59.587Z,99781.13
2023-03-29T11:17:42.944Z,99781.66
2023-03-29T11:20:27.780Z,99777.75
2023-03-29T11:23:16.480Z,99772.66
2023-03-29T11:25:59.299Z,99766.72
2023-03-29T11:28:40.682Z,99762.72
2023-03-29T11:31:20.314Z,99765.63
2023-03-29T11:34:03.237Z,99770.28
2023-03-29T11:36:41.437Z,99757.63
2023-03-29T11:39:20.379Z,99751.28
2023-03-29T11:41:54.964Z,99752.06
2023-03-29T11:44:31.020Z,99750.59
2023-03-29T11:47:05.019Z,99745.53
2023-03-29T11:49:39.624Z,99746.88
2023-03-29T11:52:14.420Z,99745.22
2023-03-29T11:54:49.196Z,99749.97
2023-03-29T11:57:26.074Z,99745.31
2023-03-29T12:00:02.917Z,99733.41
2023-03-29T12:02:37.878Z,99730.31
2023-03-29T12:05:15.480Z,99728.34
2023-03-29T12:07:49.546Z,99732.84
2023-03-29T12:10:23.730Z,99721.53
2023-03-29T12:12:59.466Z,99723.00
2023-03-29T12:15:32.115Z,99724.41
2023-03-29T12:18:15.970Z,99711.84
2023-03-29T12:20:47.838Z,99719.03
2023-03-29T12:23:17.723Z,99703.16
2023-03-29T12:25:58.392Z,99704.97
2023-03-29T12:28:56.699Z,99709.72
2023-03-29T12:31:34.317Z,99702.78
2023-03-29T12:34:37.525Z,99708.50
2023-03-29T12:37:38.790Z,99695.13
2023-03-29T12:40:15.618Z,99686.06
2023-03-29T12:42:55.034Z,99681.47
2023-03-29T12:45:33.622Z,99681.72
2023-03-29T12:48:03.598Z,99691.38
2023-03-29T12:50:36.680Z,99682.28
2023-03-29T12:53:15.247Z,99678.75
2023-03-29T12:55:54.610Z,99681.91
2023-03-29T12:58:38.686Z,99677.03
2023-03-29T13:01:10.288Z,99675.69
2023-03-29T13:03:51.900Z,99674.75
2023-03-29T13:06:33.911Z,99672.38
2023-03-29T13:09:06.160Z,99673.13
2023-03-29T13:11:39.989Z,99675.75
2023-03-29T13:14:17.947Z,99669.41
2023-03-29T13:16:46.654Z,99663.81
2023-03-29T13:19:32.254Z,99665.44
2023-03-29T13:22:17.182Z,99667.53
2023-03-29T13:25:11.133Z,99663.56
2023-03-29T13:27:51.979Z,99662.16
2023-03-29T13:30:43.859Z,99653.63
2023-03-29T13:33:53.989Z,99644.25
2023-03-29T13:36:39.634Z,99647.53
2023-03-29T13:39:16.284Z,99639.69
2023-03-29T13:41:51.740Z,99627.63
2023-03-29T13:44:30.310Z,99635.69
2023-03-29T13:47:39.805Z,99626.66
2023-03-29T13:50:16.855Z,99631.31
2023-03-29T13:52:59.024Z,99618.59
2023-03-29T13:55:33.606Z,99620.84
2023-03-29T13:58:10.846Z,99626.66
2023-03-29T14:00:47.161Z,99625.94
2023-03-29T14:03:22.216Z,99625.56
2023-03-29T14:05:57.641Z,99618.69
2023-03-29T14:08:32.418Z,99622.44
2023-03-29T14:11:06.928Z,99619.81
2023-03-29T14:13:36.425Z,99618.97
2023-03-29T14:16:09.103Z,99612.84
2023-03-29T14:18:44.696Z,99616.66
2023-03-29T14:21:15.039Z,99610.44
2023-03-29T14:23:47.886Z,99610.09
2023-03-29T14:26:20.541Z,99600.31
2023-03-29T14:28:51.750Z,99593.69
2023-03-29T14:31:21.714Z,99596.16
2023-03-29T14:33:56.110Z,99591.78
2023-03-29T14:36:27.159Z,99599.34
2023-03-29T14:38:59.673Z,99603.69
2023-03-29T14:41:31.775Z,99596.63
2023-03-29T14:44:01.308Z,99594.81
2023-03-29T14:46:30.245Z,99598.03
2023-03-29T14:49:02.161Z,99591.53
2023-03-29T14:51:31.707Z,99599.16
2023-03-29T14:54:03.050Z,99591.47
2023-03-29T14:56:33.058Z,99594.81
2023-03-29T14:59:06.043Z,99595.13
2023-03-29T15:01:44.430Z,99596.50
2023-03-29T15:04:14.812Z,99579.72
2023-03-29T15:06:46.888Z,99585.34
2023-03-29T15:09:19.765Z,99573.56
2023-03-29T15:11:56.125Z,99572.56
2023-03-29T15:14:27.761Z,99568.13
2023-03-29T15:17:03.423Z,99572.28
2023-03-29T15:19:34.412Z,99554.31
2023-03-29T15:22:11.225Z,99559.94
2023-03-29T15:24:49.839Z,99554.47
2023-03-29T15:27:21.102Z,99560.06
2023-03-29T15:29:49.865Z,99564.00
2023-03-29T15:32:26.495Z,99558.81
2023-03-29T15:35:02.541Z,99565.56
2023-03-29T15:37:31.129Z,99552.06
2023-03-29T15:39:59.968Z,99556.25
2023-03-29T15:42:28.518Z,99567.66
2023-03-29T15:44:57.700Z,99556.06
2023-03-29T15:47:26.485Z,99557.19
2023-03-29T15:49:55.014Z,99558.34
2023-03-29T15:52:25.341Z,99548.47
2023-03-29T15:54:53.885Z,99548.78
2023-03-29T15:57:22.613Z,99549.88
2023-03-29T15:59:51.232Z,99564.31
2023-03-29T16:02:24.347Z,99556.06
2023-03-29T16:04:53.538Z,99564.13
2023-03-29T16:07:21.967Z,99558.06
2023-03-29T16:09:51.837Z,99553.94
2023-03-29T16:12:20.272Z,99552.00
2023-03-29T16:14:48.732Z,99551.78
2023-03-29T16:17:17.139Z,99549.84
2023-03-29T16:19:45.591Z,99552.91
2023-03-29T16:22:14.141Z,99557.59
2023-03-29T16:24:43.836Z,99559.00
2023-03-29T16:27:13.728Z,99562.88
2023-03-29T16:29:42.174Z,99556.56
2023-03-29T16:32:11.706Z,99563.16
2023-03-29T16:34:41.491Z,99558.19
2023-03-29T16:37:10.071Z,99566.22
2023-03-29T16:39:38.716Z,99556.53
2023-03-29T16:42:07.440Z,99559.03
2023-03-29T16:44:37.288Z,99561.53
2023-03-29T16:47:06.348Z,99561.81
2023-03-29T16:49:34.900Z,99554.91
2023-03-29T16:52:04.564Z,99562.06
2023-03-29T16:54:33.127Z,99559.31
2023-03-29T16:57:01.614Z,99557.38
2023-03-29T16:59:30.752Z,99559.28
2023-03-29T17:02:01.092Z,99556.50
2023-03-29T17:04:29.955Z,99562.00
2023-03-29T17:06:58.880Z,99554.53
2023-03-29T17:09:29.653Z,99556.47
2023-03-29T17:11:58.894Z,99555.63
2023-03-29T17:14:27.537Z,99555.91
2023-03-29T17:16:56.128Z,99552.03
2023-03-29T17:19:26.084Z,99552.84
2023-03-29T17:21:54.974Z,99556.41
2023-03-29T17:24:24.059Z,99560.25
2023-03-29T17:26:52.669Z,99562.97
2023-03-29T17:29:21.726Z,99568.47
2023-03-29T17:31:51.124Z,99568.47
2023-03-29T17:34:20.935Z,99565.41
2023-03-29T17:36:53.338Z,99567.03
2023-03-29T17:39:25.262Z,99559.31
2023-03-29T17:41:57.468Z,99568.13
2023-03-29T17:44:26.349Z,99560.41
2023-03-29T17:46:56.569Z,99560.91
2023-03-29T17:49:26.067Z,99565.34
2023-03-29T17:51:56.306Z,99563.66
2023-03-29T17:54:24.897Z,99570.28
2023-03-29T17:56:53.841Z,99565.03
2023-03-29T17:59:25.012Z,99557.63
2023-03-29T18:01:54.960Z,99561.19
2023-03-29T18:04:25.294Z,99562.03
2023-03-29T18:06:57.034Z,99562.59
2023-03-29T18:09:30.770Z,99559.56
2023-03-29T18:12:01.020Z,99554.38
2023-03-29T18:14:31.888Z,99559.59
2023-03-29T18:17:02.453Z,99559.91
2023-03-29T18:19:31.545Z,99565.94
2023-03-29T18:22:02.890Z,99562.66
2023-03-29T18:24:33.329Z,99562.94
2023-03-29T18:27:05.983Z,99562.66
2023-03-29T18:29:35.433Z,99561.31
2023-03-29T18:32:05.553Z,99559.94
2023-03-29T18:34:35.200Z,99567.13
2023-03-29T18:37:08.013Z,99566.84
2023-03-29T18:39:37.867Z,99564.63
2023-03-29T18:42:09.664Z,99564.34
2023-03-29T18:44:42.635Z,99561.34
2023-03-29T18:47:13.204Z,99564.09
2023-03-29T18:49:47.180Z,99568.50
2023-03-29T18:52:21.493Z,99571.25
2023-03-29T18:54:52.061Z,99565.50
2023-03-29T18:57:23.153Z,99565.22
2023-03-29T18:59:53.000Z,99561.38
2023-03-29T19:02:24.240Z,99565.47
2023-03-29T19:04:54.141Z,99568.00
2023-03-29T19:07:25.861Z,99558.38
2023-03-29T19:09:57.157Z,99567.19
2023-03-29T19:12:27.242Z,99566.63
2023-03-29T19:14:57.648Z,99564.44
2023-03-29T19:17:30.358Z,99560.56
2023-03-29T19:20:00.981Z,99558.94
2023-03-29T19:22:34.361Z,99562.50
2023-03-29T19:25:05.362Z,99558.66
2023-03-29T19:27:36.460Z,99560.31
2023-03-29T19:30:10.143Z,99562.50
2023-03-29T19:32:40.245Z,99557.25
2023-03-29T19:35:20.128Z,99558.91
2023-03-29T19:37:51.617Z,99564.69
2023-03-29T19:40:23.721Z,99560.25
2023-03-29T19:42:54.136Z,99564.91
2023-03-29T19:45:23.797Z,99569.84
2023-03-29T19:47:56.845Z,99557.69
2023-03-29T19:50:28.238Z,99565.41
2023-03-29T19:52:59.048Z,99573.66
2023-03-29T19:55:28.781Z,99573.41
2023-03-29T19:57:59.577Z,99568.19
2023-03-29T20:00:29.220Z,99574.00
2023-03-29T20:02:58.458Z,99562.41
2023-03-29T20:05:27.785Z,99566.31
2023-03-29T20:07:58.718Z,99571.25
2023-03-29T20:10:28.584Z,99573.19
2023-03-29T20:12:57.079Z,99572.38
2023-03-29T20:15:26.890Z,99570.19
2023-03-29T20:17:59.354Z,99558.34
2023-03-29T20:20:30.028Z,99562.25
2023-03-29T20:23:04.535Z,99560.59
2023-03-29T20:25:34.682Z,99558.66
2023-03-29T20:28:04.182Z,99546.53
2023-03-29T20:30:32.781Z,99547.38
2023-03-29T20:33:01.473Z,99541.03
2023-03-29T20:35:30.111Z,99537.72
2023-03-29T20:38:00.032Z,99541.84
2023-03-29T20:40:30.112Z,99545.97
2023-03-29T20:42:58.694Z,99540.75
2023-03-29T20:45:27.637Z,99528.34
2023-03-29T20:48:02.085Z,99534.69
2023-03-29T20:50:31.387Z,99530.53
2023-03-29T20:53:03.679Z,99531.09
2023-03-29T20:55:33.203Z,99526.41
2023-03-29T20:58:03.119Z,99528.34
2023-03-29T21:00:35.484Z,99523.94
2023-03-29T21:03:04.690Z,99519.25
2023-03-29T21:05:35.375Z,99519.78
2023-03-29T21:08:05.396Z,99515.66
2023-03-29T21:10:33.834Z,99512.91
2023-03-29T21:13:02.753Z,99504.66
2023-03-29T21:15:32.100Z,99501.09
2023-03-29T21:18:00.818Z,99496.66
2023-03-29T21:20:29.358Z,99501.34
2023-03-29T21:22:58.116Z,99499.44
2023-03-29T21:25:28.062Z,99499.44
2023-03-29T21:27:56.810Z,99491.44
2023-03-29T21:30:25.285Z,99497.75
2023-03-29T21:32:53.914Z,99496.13
2023-03-29T21:35:22.510Z,99493.91
2023-03-29T21:37:51.070Z,99498.06
2023-03-29T21:40:19.683Z,99493.63
2023-03-29T21:42:49.531Z,99484.28
2023-03-29T21:45:18.478Z,99490.34
2023-03-29T21:47:46.981Z,99480.16
2023-03-29T21:50:16.374Z,99478.22
2023-03-29T21:52:44.791Z,99477.94
2023-03-29T21:55:13.463Z,99466.09
2023-03-29T21:57:41.920Z,99464.19
2023-03-29T22:00:15.604Z,99464.19
2023-03-29T22:02:45.893Z,99456.47
2023-03-29T22:05:14.974Z,99461.97
2023-03-29T22:07:43.495Z,99459.75
2023-03-29T22:10:13.972Z,99457.84
2023-03-29T22:12:43.270Z,99453.72
2023-03-29T22:15:15.218Z,99463.38
2023-03-29T22:17:43.882Z,99457.56
2023-03-29T22:20:14.561Z,99463.63
2023-03-29T22:22:49.809Z,99453.16
2023-03-29T22:25:19.268Z,99452.06
2023-03-29T22:27:49.634Z,99452.31
2023-03-29T22:30:19.774Z,99456.19
2023-03-29T22:32:48.250Z,99460.59
2023-03-29T22:35:17.000Z,99459.75
2023-03-29T22:37:45.709Z,99458.09
2023-03-29T22:40:14.907Z,99450.91
2023-03-29T22:42:43.369Z,99448.16
2023-03-29T22:45:12.642Z,99451.72
2023-03-29T22:47:42.523Z,99456.94
2023-03-29T22:50:12.145Z,99447.56
2023-03-29T22:52:40.584Z,99451.41
2023-03-29T22:55:10.082Z,99447.03
2023-03-29T22:57:38.646Z,99449.22
2023-03-29T23:00:10.531Z,99446.72
2023-03-29T23:02:39.073Z,99449.75
2023-03-29T23:05:10.156Z,99444.22
2023-03-29T23:07:38.638Z,99451.06
2023-03-29T23:10:09.803Z,99440.59
2023-03-29T23:12:38.292Z,99439.47
2023-03-29T23:15:08.922Z,99436.13
2023-03-29T23:17:37.997Z,99438.28
2023-03-29T23:20:11.188Z,99438.22
2023-03-29T23:22:39.836Z,99437.38
2023-03-29T23:25:09.633Z,99438.72
2023-03-29T23:27:38.332Z,99436.19
2023-03-29T23:30:09.899Z,99437.25
2023-03-29T23:32:38.422Z,99438.03
2023-03-29T23:35:09.595Z,99437.19
2023-03-29T23:37:38.210Z,99437.16
2023-03-29T23:40:11.789Z,99441.78
2023-03-29T23:42:41.280Z,99445.91
2023-03-29T23:45:13.436Z,99441.22
2023-03-29T23:47:42.545Z,99440.63
2023-03-29T23:50:15.520Z,99444.19
2023-03-29T23:52:43.945Z,99421.97
2023-03-29T23:55:15.785Z,99434.59
2023-03-29T23:57:44.265Z,99425.00
